Portada
METAR-TAF:

METAR-TAF

Aeropuertos :

Yida, Arabia Saudita

Aeropuerto Internacional Rey Abdulaziz

latitud: 21-42N, longitud: 039-11E, altitud: 15 m

Observación

El informe se hizo hace 18 minutos, a las 01:00 UTC
Viento 8 kt del norte-noreste
Temperatura 21°C
Humedad 53%
Presión 1010 hPa
Visibilidad 10 km o más
Escasas nubes a una altura de 4000 ft

METAR: OEJN 240100Z 03008KT 9999 FEW040 21/11 Q1010 NOSIG

Hora: 04:18 (01:18 UTC)

Pronóstico

El informe se hizo hace 2 horas y 18 minutos, a las 23:00 UTC
Pronóstico válido del 24 a las 00 UTC al 25 a las 06 UTC
Viento 8 kt del norte-noreste
Visibilidad: 7000 m
Escasas nubes a una altura de 4000 ft
Evolucionando progresivamente
del 24 a las 06 UTC al 24 a las 08 UTC
Viento 8 kt del norte-noroeste con ráfagas de 18 kt

TAF: OEJN 232300Z 2400/2506 02008KT 7000 FEW040 BECMG 2406/2408 34008G18KT

Observaciones y pronósticos meteorológicos de más de 4000 aeropuertos (mensajes METAR y TAF).

Los puntos amarillos y rojos representan las estaciones disponibles.

Ponga el ratón en el punto deseado para ver el nombre de la estación.

Haga clic para ver las observaciones y los pronósticos meteorológicos.

Para cambiar el mapa : haga clic en los botones verdes con una cruz de color negro para hacer un zoom, en el botón verde con un guión para alejar o en las flechas verdes para mapas adyacentes.


METAR-TAF: